createdAt,value
2023-04-02T00:00:17.701Z,97456.50
2023-04-02T00:03:07.430Z,97386.72
2023-04-02T00:05:52.695Z,97472.56
2023-04-02T00:08:40.031Z,97482.94
2023-04-02T00:11:35.561Z,97481.63
2023-04-02T00:14:31.339Z,97479.69
2023-04-02T00:17:17.022Z,97488.63
2023-04-02T00:20:07.307Z,97498.97
2023-04-02T00:22:54.382Z,97502.66
2023-04-02T00:25:42.694Z,97514.75
2023-04-02T00:28:27.781Z,97482.94
2023-04-02T00:31:13.678Z,97526.22
2023-04-02T00:34:01.651Z,97534.66
2023-04-02T00:36:48.235Z,97512.19
2023-04-02T00:39:38.930Z,97533.88
2023-04-02T00:42:24.825Z,97543.00
2023-04-02T00:45:21.894Z,97542.19
2023-04-02T00:48:33.493Z,97538.63
2023-04-02T00:51:30.781Z,97565.63
2023-04-02T00:54:21.756Z,97493.63
2023-04-02T00:57:15.358Z,97536.25
2023-04-02T01:00:02.653Z,97574.44
2023-04-02T01:03:18.898Z,97576.09
2023-04-02T01:06:17.038Z,97584.53
2023-04-02T01:09:36.228Z,97590.94
2023-04-02T01:12:57.825Z,97590.78
2023-04-02T01:16:05.330Z,97595.38
2023-04-02T01:19:05.679Z,97602.91
2023-04-02T01:22:13.623Z,97607.16
2023-04-02T01:24:59.573Z,97622.78
2023-04-02T01:28:20.312Z,97626.72
2023-04-02T01:31:05.948Z,97626.91
2023-04-02T01:33:51.471Z,97641.75
2023-04-02T01:36:43.719Z,97647.28
2023-04-02T01:39:55.196Z,97655.94
2023-04-02T01:43:02.561Z,97658.22
2023-04-02T01:45:48.312Z,97661.25
2023-04-02T01:48:34.004Z,97588.88
2023-04-02T01:51:28.778Z,97671.09
2023-04-02T01:54:17.171Z,97682.69
2023-04-02T01:57:02.288Z,97686.75
2023-04-02T01:59:47.650Z,97697.53
2023-04-02T02:02:33.236Z,97703.91
2023-04-02T02:05:21.606Z,97704.41
2023-04-02T02:08:23.407Z,97712.56
2023-04-02T02:11:14.391Z,97710.94
2023-04-02T02:14:18.811Z,97732.59
2023-04-02T02:17:07.496Z,97728.53
2023-04-02T02:19:56.814Z,97739.13
2023-04-02T02:22:48.475Z,97746.31
2023-04-02T02:25:35.451Z,97748.25
2023-04-02T02:28:27.806Z,97745.50
2023-04-02T02:31:19.507Z,97752.66
2023-04-02T02:34:16.879Z,97763.56
2023-04-02T02:37:28.577Z,97770.31
2023-04-02T02:40:24.145Z,97780.09
2023-04-02T02:43:13.159Z,97772.69
2023-04-02T02:45:59.683Z,97783.03
2023-04-02T02:48:46.396Z,97789.09
2023-04-02T02:51:50.814Z,97803.56
2023-04-02T02:54:50.826Z,97807.50
2023-04-02T02:57:40.246Z,97810.69
2023-04-02T03:00:26.473Z,97793.38
2023-04-02T03:03:18.009Z,97820.97
2023-04-02T03:06:10.070Z,97817.91
2023-04-02T03:09:10.066Z,97827.63
2023-04-02T03:12:13.608Z,97808.09
2023-04-02T03:15:18.138Z,97841.00
2023-04-02T03:18:32.788Z,97853.84
2023-04-02T03:21:43.552Z,97854.50
2023-04-02T03:24:34.614Z,97869.72
2023-04-02T03:27:26.007Z,97872.22
2023-04-02T03:30:35.553Z,97846.91
2023-04-02T03:33:23.849Z,97878.41
2023-04-02T03:36:20.166Z,97885.16
2023-04-02T03:39:33.644Z,97883.69
2023-04-02T03:42:25.342Z,97904.66
2023-04-02T03:45:22.557Z,97903.78
2023-04-02T03:48:18.576Z,97912.34
2023-04-02T03:51:13.574Z,97909.72
2023-04-02T03:53:59.497Z,97920.25
2023-04-02T03:56:46.090Z,97928.41
2023-04-02T04:00:02.701Z,97922.53
2023-04-02T04:02:53.077Z,97934.75
2023-04-02T04:05:52.042Z,97940.84
2023-04-02T04:08:49.215Z,97948.69
2023-04-02T04:11:39.223Z,97947.50
2023-04-02T04:14:35.454Z,97949.97
2023-04-02T04:17:56.550Z,97874.59
2023-04-02T04:20:54.936Z,97891.44
2023-04-02T04:23:49.922Z,97977.09
2023-04-02T04:26:45.902Z,97988.69
2023-04-02T04:30:03.451Z,97985.78
2023-04-02T04:32:56.202Z,97989.69
2023-04-02T04:35:53.469Z,97998.66
2023-04-02T04:38:42.324Z,98005.19
2023-04-02T04:41:38.720Z,98011.09
2023-04-02T04:44:59.543Z,98014.13
2023-04-02T04:47:55.856Z,98027.53
2023-04-02T04:50:58.095Z,98027.69
2023-04-02T04:53:50.724Z,98023.75
2023-04-02T04:56:39.883Z,98037.00
2023-04-02T04:59:44.268Z,98045.09
2023-04-02T05:02:38.342Z,98059.22
2023-04-02T05:05:29.427Z,98057.72
2023-04-02T05:08:27.714Z,98062.25
2023-04-02T05:11:27.837Z,98073.63
2023-04-02T05:14:22.352Z,98078.97
2023-04-02T05:17:27.527Z,98080.31
2023-04-02T05:20:22.325Z,98086.09
2023-04-02T05:23:26.559Z,98060.38
2023-04-02T05:26:38.786Z,98109.63
2023-04-02T05:29:32.050Z,98080.91
2023-04-02T05:32:23.229Z,98108.56
2023-04-02T05:35:16.117Z,98115.22
2023-04-02T05:38:02.425Z,98083.91
2023-04-02T05:40:58.484Z,98123.88
2023-04-02T05:43:48.069Z,98135.38
2023-04-02T05:46:45.630Z,98135.63
2023-04-02T05:49:46.516Z,98146.88
2023-04-02T05:52:37.820Z,98148.25
2023-04-02T05:55:36.461Z,98153.03
2023-04-02T05:58:36.102Z,98163.03
2023-04-02T06:01:45.690Z,98165.47
2023-04-02T06:04:52.809Z,98090.13
2023-04-02T06:07:55.789Z,98158.59
2023-04-02T06:11:12.102Z,98179.84
2023-04-02T06:14:00.774Z,98189.94
2023-04-02T06:16:46.763Z,98196.84
2023-04-02T06:19:37.327Z,98159.59
2023-04-02T06:22:36.990Z,98213.06
2023-04-02T06:25:38.734Z,98219.59
2023-04-02T06:28:34.264Z,98223.28
2023-04-02T06:31:47.419Z,98227.00
2023-04-02T06:34:38.776Z,98237.56
2023-04-02T06:37:33.465Z,98250.00
2023-04-02T06:40:38.912Z,98253.53
2023-04-02T06:43:32.526Z,98257.09
2023-04-02T06:46:40.200Z,98264.03
2023-04-02T06:49:43.314Z,98271.81
2023-04-02T06:52:36.198Z,98281.09
2023-04-02T06:55:37.154Z,98289.25
2023-04-02T06:58:22.783Z,98293.00
2023-04-02T07:01:17.832Z,98296.00
2023-04-02T07:04:03.509Z,98238.09
2023-04-02T07:06:54.611Z,98287.47
2023-04-02T07:09:42.623Z,98324.53
2023-04-02T07:12:28.372Z,98326.50
2023-04-02T07:15:18.014Z,98322.44
2023-04-02T07:18:04.309Z,98336.38
2023-04-02T07:20:50.636Z,98333.38
2023-04-02T07:23:37.527Z,98329.91
2023-04-02T07:26:25.584Z,98339.78
2023-04-02T07:29:15.372Z,98334.06
2023-04-02T07:32:00.631Z,98368.19
2023-04-02T07:34:46.142Z,98378.13
2023-04-02T07:37:31.863Z,98385.94
2023-04-02T07:40:20.716Z,98392.25
2023-04-02T07:43:06.983Z,98336.88
2023-04-02T07:45:52.539Z,98394.53
2023-04-02T07:48:37.787Z,98400.84
2023-04-02T07:51:26.052Z,98408.06
2023-04-02T07:54:11.469Z,98328.16
2023-04-02T07:56:56.915Z,98395.88
2023-04-02T07:59:42.293Z,98423.66
2023-04-02T08:02:27.847Z,98420.03
2023-04-02T08:05:13.769Z,98439.41
2023-04-02T08:07:58.986Z,98444.69
2023-04-02T08:10:44.290Z,98436.22
2023-04-02T08:13:29.523Z,98454.28
2023-04-02T08:16:15.206Z,98458.88
2023-04-02T08:19:00.336Z,98478.72
2023-04-02T08:21:46.426Z,98474.63
2023-04-02T08:24:31.527Z,98476.88
2023-04-02T08:27:16.778Z,98482.88
2023-04-02T08:30:02.344Z,98502.22
2023-04-02T08:32:47.923Z,98499.44
2023-04-02T08:35:34.439Z,98497.25
2023-04-02T08:38:21.384Z,98487.03
2023-04-02T08:41:07.235Z,98502.94
2023-04-02T08:44:18.440Z,98515.25
2023-04-02T08:47:06.441Z,98519.22
2023-04-02T08:50:00.980Z,98524.91
2023-04-02T08:52:46.474Z,98471.19
2023-04-02T08:55:38.977Z,98535.69
2023-04-02T08:58:38.662Z,98540.63
2023-04-02T09:01:40.295Z,98546.41
2023-04-02T09:04:26.099Z,98543.03
2023-04-02T09:07:16.295Z,98525.69
2023-04-02T09:10:02.075Z,98535.34
2023-04-02T09:12:52.054Z,98559.06
2023-04-02T09:15:37.719Z,98538.88
2023-04-02T09:18:23.298Z,98533.59
2023-04-02T09:21:23.584Z,98569.31
2023-04-02T09:24:11.833Z,98577.13
2023-04-02T09:26:57.050Z,98582.75
2023-04-02T09:29:47.828Z,98514.00
2023-04-02T09:32:48.373Z,98593.63
2023-04-02T09:35:36.794Z,98600.81
2023-04-02T09:38:23.753Z,98551.63
2023-04-02T09:41:20.585Z,98614.84
2023-04-02T09:44:27.303Z,98616.50
2023-04-02T09:47:25.508Z,98604.97
2023-04-02T09:50:34.687Z,98624.66
2023-04-02T09:53:33.233Z,98635.03
2023-04-02T09:56:23.081Z,98635.75
2023-04-02T09:59:19.815Z,98645.31
2023-04-02T10:02:25.175Z,98568.22
2023-04-02T10:05:30.044Z,98660.31
2023-04-02T10:08:27.675Z,98659.47
2023-04-02T10:11:21.686Z,98661.84
2023-04-02T10:14:18.040Z,98672.94
2023-04-02T10:17:17.568Z,98661.03
2023-04-02T10:20:08.814Z,98669.84
2023-04-02T10:22:54.173Z,98662.22
2023-04-02T10:25:45.993Z,98673.53
2023-04-02T10:28:53.041Z,98672.81
2023-04-02T10:31:50.900Z,98673.88
2023-04-02T10:34:43.978Z,98675.41
2023-04-02T10:37:56.848Z,98680.00
2023-04-02T10:40:44.913Z,98684.38
2023-04-02T10:43:36.322Z,98689.94
2023-04-02T10:46:42.548Z,98687.56
2023-04-02T10:49:48.215Z,98695.34
2023-04-02T10:52:45.202Z,98692.19
2023-04-02T10:55:33.985Z,98635.59
2023-04-02T10:58:28.941Z,98714.50
2023-04-02T11:01:24.140Z,98723.72
2023-04-02T11:04:27.471Z,98709.78
2023-04-02T11:07:19.174Z,98731.63
2023-04-02T11:10:06.277Z,98736.34
2023-04-02T11:13:26.365Z,98739.53
2023-04-02T11:16:13.276Z,98744.72
2023-04-02T11:19:24.448Z,98751.56
2023-04-02T11:22:24.083Z,98763.38
2023-04-02T11:25:21.919Z,98705.50
2023-04-02T11:28:28.252Z,98769.56
2023-04-02T11:31:20.842Z,98769.78
2023-04-02T11:34:06.445Z,98767.50
2023-04-02T11:36:56.386Z,98770.00
2023-04-02T11:39:54.868Z,98771.66
2023-04-02T11:42:48.624Z,98765.53
2023-04-02T11:45:52.646Z,98788.22
2023-04-02T11:48:39.219Z,98788.91
2023-04-02T11:51:24.432Z,98791.06
2023-04-02T11:54:26.345Z,98781.25
2023-04-02T11:57:26.289Z,98795.41
2023-04-02T12:00:40.435Z,98802.84
2023-04-02T12:03:44.280Z,98802.59
2023-04-02T12:06:50.829Z,98803.09
2023-04-02T12:09:54.646Z,98805.44
2023-04-02T12:12:40.412Z,98800.31
2023-04-02T12:15:34.843Z,98810.22
2023-04-02T12:18:24.296Z,98809.09
2023-04-02T12:21:15.936Z,98804.19
2023-04-02T12:24:03.549Z,98803.03
2023-04-02T12:26:49.464Z,98828.19
2023-04-02T12:29:34.634Z,98829.03
2023-04-02T12:32:30.610Z,98837.78
2023-04-02T12:35:32.604Z,98840.03
2023-04-02T12:38:29.549Z,98839.69
2023-04-02T12:41:32.990Z,98838.75
2023-04-02T12:44:20.764Z,98847.75
2023-04-02T12:47:06.278Z,98850.34
2023-04-02T12:49:52.540Z,98781.09
2023-04-02T12:52:45.585Z,98762.53
2023-04-02T12:55:30.793Z,98835.13
2023-04-02T12:58:39.910Z,98849.44
2023-04-02T13:01:27.696Z,98846.78
2023-04-02T13:04:13.445Z,98860.03
2023-04-02T13:06:58.717Z,98863.66
2023-04-02T13:09:55.599Z,98870.53
2023-04-02T13:12:41.466Z,98876.31
2023-04-02T13:15:32.446Z,98874.75
2023-04-02T13:18:20.501Z,98872.31
2023-04-02T13:21:28.547Z,98871.59
2023-04-02T13:24:36.134Z,98875.91
2023-04-02T13:27:21.709Z,98874.09
2023-04-02T13:30:20.030Z,98820.84
2023-04-02T13:33:05.654Z,98877.69
2023-04-02T13:35:51.011Z,98883.25
2023-04-02T13:38:36.215Z,98886.16
2023-04-02T13:41:23.990Z,98884.03
2023-04-02T13:44:20.542Z,98875.41
2023-04-02T13:47:05.716Z,98810.00
2023-04-02T13:49:51.176Z,98883.91
2023-04-02T13:52:36.272Z,98895.63
2023-04-02T13:55:24.446Z,98898.06
2023-04-02T13:58:10.368Z,98894.56
2023-04-02T14:00:55.914Z,98900.59
2023-04-02T14:03:41.546Z,98900.97
2023-04-02T14:06:32.854Z,98913.41
2023-04-02T14:09:29.757Z,98902.91
2023-04-02T14:12:21.324Z,98906.09
2023-04-02T14:15:43.362Z,98921.22
2023-04-02T14:19:18.101Z,98924.25
2023-04-02T14:22:49.074Z,98933.22
2023-04-02T14:26:12.108Z,98938.75
2023-04-02T14:29:11.334Z,98937.84
2023-04-02T14:32:23.197Z,98940.31
2023-04-02T14:35:14.459Z,98942.16
2023-04-02T14:38:13.856Z,98933.69
2023-04-02T14:41:17.581Z,98943.25
2023-04-02T14:44:07.564Z,98941.06
2023-04-02T14:47:02.041Z,98933.47
2023-04-02T14:49:50.531Z,98959.34
2023-04-02T14:52:37.537Z,98951.69
2023-04-02T14:55:39.430Z,98953.56
2023-04-02T14:58:34.713Z,98960.44
2023-04-02T15:01:32.209Z,98957.41
2023-04-02T15:04:23.101Z,98953.81
2023-04-02T15:07:22.141Z,98953.75
2023-04-02T15:10:20.481Z,98968.31
2023-04-02T15:13:12.242Z,98965.28
2023-04-02T15:16:16.468Z,98968.94
2023-04-02T15:19:04.410Z,98964.88
2023-04-02T15:22:26.678Z,98964.50
2023-04-02T15:25:37.473Z,98977.34
2023-04-02T15:28:28.358Z,98982.56
2023-04-02T15:31:14.666Z,98982.06
2023-04-02T15:34:08.673Z,98989.72
2023-04-02T15:37:28.259Z,98992.34
2023-04-02T15:40:35.705Z,98995.78
2023-04-02T15:43:24.478Z,98987.34
2023-04-02T15:46:15.812Z,98992.88
2023-04-02T15:49:19.222Z,98994.41
2023-04-02T15:52:29.702Z,99005.41
2023-04-02T15:55:38.313Z,99007.94
2023-04-02T15:58:42.511Z,99004.41
2023-04-02T16:01:56.963Z,99015.75
2023-04-02T16:04:46.179Z,99019.78
2023-04-02T16:07:57.294Z,99023.66
2023-04-02T16:10:43.385Z,99033.81
2023-04-02T16:13:32.954Z,99032.22
2023-04-02T16:16:25.962Z,99032.03
2023-04-02T16:19:41.734Z,99030.00
2023-04-02T16:22:30.281Z,98975.31
2023-04-02T16:25:19.849Z,99029.66
2023-04-02T16:28:43.674Z,99033.84
2023-04-02T16:31:37.623Z,99034.47
2023-04-02T16:35:31.147Z,99043.44
2023-04-02T16:38:51.699Z,99049.34
2023-04-02T16:42:16.790Z,99050.97
2023-04-02T16:45:19.304Z,99048.13
2023-04-02T16:48:18.514Z,99043.38
2023-04-02T16:51:27.101Z,99043.47
2023-04-02T16:54:30.481Z,99052.06
2023-04-02T16:57:23.911Z,99045.88
2023-04-02T17:00:24.344Z,99054.38
2023-04-02T17:03:21.676Z,99056.81
2023-04-02T17:06:18.819Z,99060.00
2023-04-02T17:09:22.612Z,98990.66
2023-04-02T17:12:39.736Z,99063.66
2023-04-02T17:15:34.731Z,99067.72
2023-04-02T17:18:21.765Z,99068.41
2023-04-02T17:21:10.429Z,99076.78
2023-04-02T17:24:02.314Z,99082.94
2023-04-02T17:26:53.258Z,99021.03
2023-04-02T17:29:43.087Z,99024.19
2023-04-02T17:32:33.485Z,99087.72
2023-04-02T17:35:32.973Z,99097.97
2023-04-02T17:38:35.379Z,99091.97
2023-04-02T17:41:39.042Z,99096.13
2023-04-02T17:44:42.695Z,99097.00
2023-04-02T17:47:46.411Z,99031.50
2023-04-02T17:50:37.869Z,99098.34
2023-04-02T17:53:34.453Z,99099.16
2023-04-02T17:56:48.726Z,99108.16
2023-04-02T17:59:42.792Z,99108.81
2023-04-02T18:02:46.577Z,99115.44
2023-04-02T18:05:54.294Z,99117.06
2023-04-02T18:08:42.497Z,99120.59
2023-04-02T18:11:43.334Z,99124.13
2023-04-02T18:14:46.695Z,99129.69
2023-04-02T18:17:53.550Z,99131.28
2023-04-02T18:21:12.929Z,99135.16
2023-04-02T18:24:37.330Z,99137.41
2023-04-02T18:27:37.625Z,99144.69
2023-04-02T18:30:38.206Z,99142.88
2023-04-02T18:33:43.439Z,99155.38
2023-04-02T18:36:57.446Z,99156.78
2023-04-02T18:39:45.727Z,99166.03
2023-04-02T18:42:55.826Z,99170.22
2023-04-02T18:45:59.498Z,99172.44
2023-04-02T18:48:54.292Z,99174.34
2023-04-02T18:51:40.299Z,99182.06
2023-04-02T18:54:33.920Z,99178.41
2023-04-02T18:57:28.731Z,99186.53
2023-04-02T19:00:41.178Z,99190.66
2023-04-02T19:03:32.704Z,99193.97
2023-04-02T19:06:28.502Z,99197.41
2023-04-02T19:09:13.978Z,99187.97
2023-04-02T19:11:59.165Z,99196.41
2023-04-02T19:14:45.203Z,99196.72
2023-04-02T19:17:41.361Z,99196.63
2023-04-02T19:20:37.585Z,99199.34
2023-04-02T19:23:49.174Z,99205.38
2023-04-02T19:26:49.194Z,99215.06
2023-04-02T19:29:56.285Z,99222.41
2023-04-02T19:33:16.548Z,99218.53
2023-04-02T19:36:07.992Z,99227.31
2023-04-02T19:38:56.392Z,99236.47
2023-04-02T19:41:46.712Z,99247.59
2023-04-02T19:44:31.973Z,99240.03
2023-04-02T19:47:18.733Z,99243.72
2023-04-02T19:50:04.178Z,99247.06
2023-04-02T19:52:49.366Z,99241.25
2023-04-02T19:55:35.207Z,99246.22
2023-04-02T19:58:28.188Z,99241.94
2023-04-02T20:01:14.077Z,99167.13
2023-04-02T20:03:59.272Z,99246.66
2023-04-02T20:06:45.150Z,99204.25
2023-04-02T20:09:30.358Z,99258.28
2023-04-02T20:12:15.591Z,99255.22
2023-04-02T20:15:01.146Z,99260.19
2023-04-02T20:17:46.305Z,99195.34
2023-04-02T20:20:32.001Z,99267.34
2023-04-02T20:23:17.860Z,99269.22
2023-04-02T20:26:04.548Z,99275.47
2023-04-02T20:28:50.064Z,99280.56
2023-04-02T20:31:35.401Z,99280.22
2023-04-02T20:34:21.265Z,99280.91
2023-04-02T20:37:06.272Z,99289.16
2023-04-02T20:39:51.634Z,99290.03
2023-04-02T20:42:37.033Z,99298.13
2023-04-02T20:45:22.331Z,99300.59
2023-04-02T20:48:07.852Z,99299.97
2023-04-02T20:50:53.645Z,99312.75
2023-04-02T20:53:38.755Z,99310.19
2023-04-02T20:56:24.331Z,99311.47
2023-04-02T20:59:09.687Z,99265.25
2023-04-02T21:01:55.030Z,99311.94
2023-04-02T21:04:40.004Z,99310.06
2023-04-02T21:07:25.634Z,99302.38
2023-04-02T21:10:10.865Z,99327.69
2023-04-02T21:12:56.684Z,99335.63
2023-04-02T21:15:41.869Z,99337.16
2023-04-02T21:18:26.853Z,99340.38
2023-04-02T21:21:13.896Z,99325.94
2023-04-02T21:24:04.859Z,99346.38
2023-04-02T21:26:50.363Z,99336.75
2023-04-02T21:29:35.914Z,99350.69
2023-04-02T21:32:22.059Z,99360.28
2023-04-02T21:35:08.165Z,99359.59
2023-04-02T21:37:53.331Z,99363.97
2023-04-02T21:40:38.526Z,99370.69
2023-04-02T21:43:23.664Z,99367.56
2023-04-02T21:46:10.036Z,99362.16
2023-04-02T21:48:58.865Z,99369.59
2023-04-02T21:51:45.778Z,99369.97
2023-04-02T21:54:30.990Z,99371.41
2023-04-02T21:57:17.859Z,99369.16
2023-04-02T22:00:04.302Z,99369.63
2023-04-02T22:02:50.223Z,99374.00
2023-04-02T22:05:35.936Z,99373.53
2023-04-02T22:08:21.783Z,99377.34
2023-04-02T22:11:09.888Z,99381.72
2023-04-02T22:13:55.949Z,99379.94
2023-04-02T22:16:41.566Z,99384.19
2023-04-02T22:19:27.061Z,99388.19
2023-04-02T22:22:12.421Z,99390.06
2023-04-02T22:24:57.844Z,99385.28
2023-04-02T22:27:42.952Z,99397.34
2023-04-02T22:30:28.234Z,99393.22
2023-04-02T22:33:13.357Z,99391.34
2023-04-02T22:35:59.024Z,99399.06
2023-04-02T22:38:44.792Z,99400.09
2023-04-02T22:41:30.043Z,99378.50
2023-04-02T22:44:15.556Z,99401.06
2023-04-02T22:47:00.827Z,99403.13
2023-04-02T22:49:46.332Z,99400.97
2023-04-02T22:52:31.619Z,99339.69
2023-04-02T22:55:16.654Z,99402.50
2023-04-02T22:58:02.360Z,99378.91
2023-04-02T23:00:48.718Z,99409.91
2023-04-02T23:03:34.443Z,99417.19
2023-04-02T23:06:19.782Z,99416.75
2023-04-02T23:09:05.178Z,99423.31
2023-04-02T23:11:50.754Z,99425.19
2023-04-02T23:14:36.113Z,99424.69
2023-04-02T23:17:21.244Z,99435.47
2023-04-02T23:20:08.134Z,99432.56
2023-04-02T23:22:53.499Z,99442.03
2023-04-02T23:25:39.081Z,99441.53
2023-04-02T23:28:24.094Z,99450.81
2023-04-02T23:31:14.259Z,99381.63
2023-04-02T23:33:59.860Z,99444.97
2023-04-02T23:36:45.082Z,99445.19
2023-04-02T23:39:30.184Z,99449.13
2023-04-02T23:42:15.437Z,99451.69
2023-04-02T23:45:00.843Z,99449.91
2023-04-02T23:47:46.176Z,99449.22
2023-04-02T23:50:31.500Z,99452.13
2023-04-02T23:53:16.733Z,99446.00
2023-04-02T23:56:01.938Z,99448.78
2023-04-02T23:58:47.527Z,99457.50
